createdAt,value
2023-03-31T00:02:15.198Z,40.63
2023-03-31T00:04:45.662Z,40.70
2023-03-31T00:07:14.323Z,40.81
2023-03-31T00:09:45.583Z,40.89
2023-03-31T00:12:13.503Z,41.42
2023-03-31T00:14:40.761Z,41.47
2023-03-31T00:17:08.927Z,41.60
2023-03-31T00:19:36.744Z,41.90
2023-03-31T00:22:04.849Z,42.11
2023-03-31T00:24:32.600Z,42.56
2023-03-31T00:27:01.417Z,42.62
2023-03-31T00:29:28.817Z,42.75
2023-03-31T00:31:56.136Z,42.77
2023-03-31T00:34:22.982Z,43.00
2023-03-31T00:36:49.778Z,43.10
2023-03-31T00:39:18.899Z,43.17
2023-03-31T00:41:45.767Z,43.26
2023-03-31T00:44:22.238Z,43.61
2023-03-31T00:46:56.406Z,43.96
2023-03-31T00:49:23.122Z,44.20
2023-03-31T00:51:52.037Z,44.37
2023-03-31T00:54:22.841Z,44.49
2023-03-31T00:56:52.650Z,44.89
2023-03-31T00:59:20.310Z,44.90
2023-03-31T01:01:50.027Z,45.12
2023-03-31T01:04:22.015Z,45.02
2023-03-31T01:07:00.332Z,45.19
2023-03-31T01:09:34.389Z,45.57
2023-03-31T01:12:05.784Z,45.55
2023-03-31T01:14:32.736Z,45.59
2023-03-31T01:16:59.682Z,45.61
2023-03-31T01:19:51.468Z,45.65
2023-03-31T01:22:24.405Z,45.69
2023-03-31T01:25:32.265Z,45.89
2023-03-31T01:28:07.150Z,45.95
2023-03-31T01:30:43.904Z,46.08
2023-03-31T01:33:54.325Z,46.08
2023-03-31T01:36:43.114Z,46.06
2023-03-31T01:39:23.479Z,46.14
2023-03-31T01:42:01.515Z,46.27
2023-03-31T01:44:59.975Z,46.41
2023-03-31T01:47:39.805Z,46.60
2023-03-31T01:50:15.766Z,46.12
2023-03-31T01:53:10.562Z,46.33
2023-03-31T01:55:39.472Z,46.34
2023-03-31T01:58:14.227Z,46.46
2023-03-31T02:00:51.434Z,46.73
2023-03-31T02:03:24.182Z,47.02
2023-03-31T02:05:56.679Z,47.22
2023-03-31T02:08:34.509Z,47.90
2023-03-31T02:11:02.521Z,48.26
2023-03-31T02:13:33.816Z,48.83
2023-03-31T02:16:06.696Z,48.97
2023-03-31T02:18:38.044Z,49.28
2023-03-31T02:21:08.161Z,49.55
2023-03-31T02:23:38.088Z,49.96
2023-03-31T02:26:11.772Z,50.22
2023-03-31T02:28:40.283Z,50.52
2023-03-31T02:31:28.842Z,50.99
2023-03-31T02:33:57.246Z,51.17
2023-03-31T02:36:25.003Z,51.25
2023-03-31T02:38:57.910Z,51.67
2023-03-31T02:41:27.821Z,51.64
2023-03-31T02:43:56.214Z,51.99
2023-03-31T02:46:25.014Z,51.91
2023-03-31T02:48:59.223Z,52.17
2023-03-31T02:51:29.098Z,52.30
2023-03-31T02:54:50.748Z,52.25
2023-03-31T02:57:26.820Z,52.70
2023-03-31T03:00:18.716Z,52.47
2023-03-31T03:03:29.047Z,52.77
2023-03-31T03:06:20.224Z,52.90
2023-03-31T03:09:04.314Z,53.03
2023-03-31T03:11:43.542Z,53.15
2023-03-31T03:14:26.605Z,53.23
2023-03-31T03:17:05.440Z,53.38
2023-03-31T03:19:32.489Z,53.21
2023-03-31T03:21:59.331Z,53.21
2023-03-31T03:24:29.063Z,53.10
2023-03-31T03:26:56.085Z,53.17
2023-03-31T03:29:23.065Z,53.15
2023-03-31T03:31:50.043Z,53.49
2023-03-31T03:34:18.300Z,53.44
2023-03-31T03:36:46.267Z,53.51
2023-03-31T03:39:13.077Z,53.62
2023-03-31T03:41:39.990Z,53.97
2023-03-31T03:44:06.800Z,54.06
2023-03-31T03:46:33.715Z,54.63
2023-03-31T03:49:00.540Z,54.84
2023-03-31T03:51:27.251Z,55.23
2023-03-31T03:53:54.075Z,55.84
2023-03-31T03:56:21.634Z,55.96
2023-03-31T03:58:48.434Z,56.24
2023-03-31T04:01:15.779Z,56.63
2023-03-31T04:03:42.605Z,56.81
2023-03-31T04:06:09.596Z,57.17
2023-03-31T04:08:36.533Z,57.57
2023-03-31T04:11:03.458Z,57.60
2023-03-31T04:13:30.208Z,57.58
2023-03-31T04:15:57.025Z,57.50
2023-03-31T04:18:23.906Z,57.50
2023-03-31T04:21:03.543Z,57.27
2023-03-31T04:23:38.032Z,57.23
2023-03-31T04:26:08.605Z,57.21
2023-03-31T04:28:36.650Z,56.97
2023-03-31T04:31:08.897Z,57.34
2023-03-31T04:33:39.336Z,57.44
2023-03-31T04:36:17.240Z,57.81
2023-03-31T04:38:46.405Z,57.65
2023-03-31T04:41:14.129Z,57.73
2023-03-31T04:43:40.959Z,57.69
2023-03-31T04:46:08.107Z,57.65
2023-03-31T04:48:35.804Z,57.62
2023-03-31T04:51:03.229Z,57.54
2023-03-31T04:53:30.212Z,57.78
2023-03-31T04:55:57.620Z,57.82
2023-03-31T04:58:24.685Z,58.14
2023-03-31T05:00:52.544Z,58.58
2023-03-31T05:03:20.075Z,58.59
2023-03-31T05:05:46.901Z,58.58
2023-03-31T05:08:13.626Z,59.07
2023-03-31T05:10:40.399Z,58.97
2023-03-31T05:13:10.600Z,58.99
2023-03-31T05:15:39.077Z,59.15
2023-03-31T05:18:07.472Z,59.59
2023-03-31T05:20:34.537Z,59.87
2023-03-31T05:23:01.467Z,59.64
2023-03-31T05:25:32.399Z,59.86
2023-03-31T05:28:00.308Z,60.12
2023-03-31T05:30:27.617Z,59.80
2023-03-31T05:32:55.384Z,59.74
2023-03-31T05:35:22.962Z,59.79
2023-03-31T05:37:49.909Z,59.52
2023-03-31T05:40:16.945Z,60.21
2023-03-31T05:42:44.048Z,59.95
2023-03-31T05:45:12.195Z,60.40
2023-03-31T05:47:39.244Z,61.21
2023-03-31T05:50:08.463Z,60.39
2023-03-31T05:52:35.888Z,61.27
2023-03-31T05:55:03.950Z,60.80
2023-03-31T05:57:31.398Z,60.17
2023-03-31T05:59:58.441Z,59.17
2023-03-31T06:02:25.434Z,59.04
2023-03-31T06:04:52.388Z,58.62
2023-03-31T06:07:19.298Z,58.60
2023-03-31T06:09:46.445Z,58.48
2023-03-31T06:12:13.519Z,58.20
2023-03-31T06:14:40.287Z,58.72
2023-03-31T06:17:07.382Z,59.42
2023-03-31T06:19:34.643Z,60.03
2023-03-31T06:22:01.775Z,59.03
2023-03-31T06:24:28.609Z,58.95
2023-03-31T06:26:55.401Z,59.85
2023-03-31T06:29:22.219Z,59.79
2023-03-31T06:31:49.247Z,59.27
2023-03-31T06:34:17.833Z,60.08
2023-03-31T06:36:45.601Z,60.11
2023-03-31T06:39:12.445Z,59.50
2023-03-31T06:41:39.386Z,59.52
2023-03-31T06:44:06.623Z,58.97
2023-03-31T06:46:33.500Z,59.86
2023-03-31T06:49:00.376Z,59.66
2023-03-31T06:51:27.302Z,60.02
2023-03-31T06:53:54.106Z,60.39
2023-03-31T06:56:21.467Z,59.75
2023-03-31T06:58:48.414Z,57.99
2023-03-31T07:01:15.405Z,58.43
2023-03-31T07:03:42.241Z,58.63
2023-03-31T07:06:09.224Z,58.60
2023-03-31T07:08:36.181Z,57.96
2023-03-31T07:11:04.141Z,58.01
2023-03-31T07:13:31.433Z,57.88
2023-03-31T07:15:58.337Z,57.83
2023-03-31T07:18:34.360Z,57.80
2023-03-31T07:21:03.636Z,57.55
2023-03-31T07:23:31.996Z,57.53
2023-03-31T07:26:02.094Z,57.27
2023-03-31T07:28:29.994Z,56.45
2023-03-31T07:30:56.997Z,55.74
2023-03-31T07:33:24.095Z,55.69
2023-03-31T07:36:00.204Z,55.21
2023-03-31T07:38:35.635Z,55.18
2023-03-31T07:41:08.967Z,54.26
2023-03-31T07:43:37.082Z,53.84
2023-03-31T07:46:05.141Z,53.53
2023-03-31T07:48:33.361Z,54.44
2023-03-31T07:51:00.316Z,54.16
2023-03-31T07:53:33.219Z,54.07
2023-03-31T07:56:00.016Z,53.92
2023-03-31T07:58:26.861Z,53.47
2023-03-31T08:00:53.664Z,53.96
2023-03-31T08:03:20.509Z,54.44
2023-03-31T08:05:47.955Z,53.48
2023-03-31T08:08:15.776Z,53.51
2023-03-31T08:10:42.649Z,53.68
2023-03-31T08:13:09.435Z,52.72
2023-03-31T08:15:36.232Z,53.25
2023-03-31T08:18:04.650Z,53.76
2023-03-31T08:20:32.468Z,54.08
2023-03-31T08:22:59.759Z,54.44
2023-03-31T08:25:26.555Z,54.85
2023-03-31T08:27:53.439Z,55.42
2023-03-31T08:30:20.456Z,55.46
2023-03-31T08:32:47.348Z,55.93
2023-03-31T08:35:14.703Z,55.21
2023-03-31T08:37:41.951Z,54.76
2023-03-31T08:40:16.395Z,55.37
2023-03-31T08:42:47.041Z,55.56
2023-03-31T08:45:20.132Z,55.85
2023-03-31T08:47:51.459Z,55.03
2023-03-31T08:50:27.068Z,54.44
2023-03-31T08:53:03.496Z,53.90
2023-03-31T08:55:41.830Z,51.85
2023-03-31T08:58:27.167Z,52.24
2023-03-31T09:01:19.267Z,52.79
2023-03-31T09:04:12.854Z,53.29
2023-03-31T09:06:39.953Z,53.14
2023-03-31T09:09:14.103Z,52.68
2023-03-31T09:11:50.824Z,52.22
2023-03-31T09:14:19.430Z,51.37
2023-03-31T09:17:11.215Z,51.21
2023-03-31T09:19:48.508Z,50.05
2023-03-31T09:22:20.814Z,50.29
2023-03-31T09:25:06.242Z,50.44
2023-03-31T09:27:36.763Z,50.69
2023-03-31T09:30:28.777Z,50.47
2023-03-31T09:33:17.097Z,49.58
2023-03-31T09:35:45.977Z,49.28
2023-03-31T09:38:15.397Z,49.53
2023-03-31T09:40:42.880Z,48.97
2023-03-31T09:43:22.916Z,47.98
2023-03-31T09:46:07.901Z,46.96
2023-03-31T09:48:38.625Z,45.70
2023-03-31T09:51:07.753Z,45.27
2023-03-31T09:53:40.888Z,45.92
2023-03-31T09:56:10.923Z,45.89
2023-03-31T09:58:42.853Z,45.35
2023-03-31T10:01:12.675Z,44.94
2023-03-31T10:03:50.507Z,45.01
2023-03-31T10:06:18.090Z,44.52
2023-03-31T10:08:57.133Z,44.64
2023-03-31T10:11:26.813Z,44.63
2023-03-31T10:14:15.259Z,44.64
2023-03-31T10:16:53.304Z,44.69
2023-03-31T10:19:24.354Z,45.46
2023-03-31T10:22:04.536Z,45.92
2023-03-31T10:24:39.789Z,47.64
2023-03-31T10:27:22.230Z,48.61
2023-03-31T10:29:56.107Z,49.63
2023-03-31T10:32:34.905Z,50.82
2023-03-31T10:35:35.934Z,52.14
2023-03-31T10:38:25.991Z,53.95
2023-03-31T10:40:56.135Z,55.12
2023-03-31T10:43:48.813Z,54.83
2023-03-31T10:46:15.717Z,56.05
2023-03-31T10:48:44.550Z,61.14
2023-03-31T10:51:26.277Z,64.42
2023-03-31T10:53:55.647Z,66.70
2023-03-31T10:56:42.973Z,69.57
2023-03-31T10:59:37.926Z,75.17
2023-03-31T11:02:39.328Z,77.20
2023-03-31T11:05:36.792Z,85.81
2023-03-31T11:08:03.633Z,85.30
2023-03-31T11:10:53.395Z,83.11
2023-03-31T11:13:20.303Z,88.70
2023-03-31T11:16:10.666Z,85.53
2023-03-31T11:19:15.975Z,86.80
2023-03-31T11:21:46.745Z,90.41
2023-03-31T11:24:33.162Z,91.65
2023-03-31T11:27:18.324Z,95.82
2023-03-31T11:30:10.460Z,99.98
2023-03-31T11:33:19.500Z,100.00
2023-03-31T11:35:53.765Z,100.00
2023-03-31T11:38:41.990Z,100.00
2023-03-31T11:41:18.881Z,100.00
2023-03-31T11:43:49.989Z,100.00
2023-03-31T11:46:20.073Z,100.00
2023-03-31T11:48:54.703Z,100.00
2023-03-31T11:51:28.238Z,100.00
2023-03-31T11:54:00.670Z,100.00
2023-03-31T11:56:35.359Z,100.00
2023-03-31T11:59:03.834Z,100.00
2023-03-31T12:01:42.036Z,100.00
2023-03-31T12:04:30.656Z,100.00
2023-03-31T12:07:04.206Z,100.00
2023-03-31T12:09:51.564Z,100.00
2023-03-31T12:12:24.107Z,100.00
2023-03-31T12:15:03.307Z,100.00
2023-03-31T12:18:24.911Z,100.00
2023-03-31T12:20:55.855Z,100.00
2023-03-31T12:23:26.808Z,100.00
2023-03-31T12:26:11.547Z,100.00
2023-03-31T12:28:40.695Z,100.00
2023-03-31T12:31:15.244Z,100.00
2023-03-31T12:34:09.285Z,100.00
2023-03-31T12:36:57.297Z,100.00
2023-03-31T12:39:55.334Z,100.00
2023-03-31T12:42:34.424Z,100.00
2023-03-31T12:45:30.927Z,100.00
2023-03-31T12:48:16.383Z,100.00
2023-03-31T12:51:05.389Z,100.00
2023-03-31T12:53:58.941Z,100.00
2023-03-31T12:56:27.615Z,100.00
2023-03-31T12:58:54.506Z,100.00
2023-03-31T13:01:22.996Z,100.00
2023-03-31T13:04:11.095Z,100.00
2023-03-31T13:06:37.914Z,100.00
2023-03-31T13:09:08.125Z,100.00
2023-03-31T13:11:37.636Z,100.00
2023-03-31T13:14:27.594Z,100.00
2023-03-31T13:17:22.364Z,100.00
2023-03-31T13:19:50.669Z,100.00
2023-03-31T13:22:35.034Z,100.00
2023-03-31T13:25:30.457Z,100.00
2023-03-31T13:28:03.990Z,100.00
2023-03-31T13:30:40.276Z,100.00
2023-03-31T13:33:10.359Z,100.00
2023-03-31T13:35:42.026Z,100.00
2023-03-31T13:38:40.959Z,100.00
2023-03-31T13:41:16.609Z,100.00
2023-03-31T13:44:32.343Z,100.00
2023-03-31T13:47:36.760Z,100.00
2023-03-31T13:50:12.917Z,100.00
2023-03-31T13:53:10.878Z,100.00
2023-03-31T13:56:02.491Z,100.00
2023-03-31T13:59:05.631Z,100.00
2023-03-31T14:01:53.744Z,100.00
2023-03-31T14:04:39.088Z,100.00
2023-03-31T14:07:14.284Z,100.00
2023-03-31T14:09:49.623Z,100.00
2023-03-31T14:12:36.780Z,100.00
2023-03-31T14:15:06.462Z,100.00
2023-03-31T14:17:36.622Z,100.00
2023-03-31T14:20:24.178Z,100.00
2023-03-31T14:23:03.655Z,100.00
2023-03-31T14:25:33.149Z,100.00
2023-03-31T14:28:37.683Z,100.00
2023-03-31T14:31:38.658Z,100.00
2023-03-31T14:34:41.241Z,100.00
2023-03-31T14:37:15.061Z,100.00
2023-03-31T14:39:46.282Z,100.00
2023-03-31T14:42:15.910Z,100.00
2023-03-31T14:44:46.242Z,100.00
2023-03-31T14:47:16.395Z,100.00
2023-03-31T14:49:43.264Z,100.00
2023-03-31T14:52:24.842Z,100.00
2023-03-31T14:54:52.588Z,100.00
2023-03-31T14:57:22.467Z,100.00
2023-03-31T14:59:53.319Z,100.00
2023-03-31T15:02:33.246Z,100.00
2023-03-31T15:05:04.722Z,100.00
2023-03-31T15:07:31.659Z,100.00
2023-03-31T15:09:59.128Z,100.00
2023-03-31T15:12:28.919Z,100.00
2023-03-31T15:15:03.520Z,100.00
2023-03-31T15:17:36.724Z,100.00
2023-03-31T15:20:27.491Z,100.00
2023-03-31T15:22:59.244Z,100.00
2023-03-31T15:25:32.304Z,100.00
2023-03-31T15:28:14.315Z,100.00
2023-03-31T15:30:41.844Z,100.00
2023-03-31T15:33:19.711Z,100.00
2023-03-31T15:35:47.516Z,100.00
2023-03-31T15:38:17.905Z,100.00
2023-03-31T15:40:54.100Z,100.00
2023-03-31T15:43:26.912Z,100.00
2023-03-31T15:46:21.660Z,100.00
2023-03-31T15:48:55.555Z,100.00
2023-03-31T15:51:32.899Z,100.00
2023-03-31T15:53:59.838Z,100.00
2023-03-31T15:56:33.754Z,100.00
2023-03-31T15:59:20.988Z,100.00
2023-03-31T16:01:50.648Z,100.00
2023-03-31T16:04:18.192Z,100.00
2023-03-31T16:06:47.644Z,100.00
2023-03-31T16:09:23.661Z,100.00
2023-03-31T16:11:55.004Z,100.00
2023-03-31T16:14:45.136Z,100.00
2023-03-31T16:17:25.672Z,100.00
2023-03-31T16:20:06.616Z,100.00
2023-03-31T16:22:40.136Z,100.00
2023-03-31T16:25:19.833Z,100.00
2023-03-31T16:27:56.582Z,100.00
2023-03-31T16:30:36.485Z,100.00
2023-03-31T16:33:11.694Z,100.00
2023-03-31T16:35:41.561Z,100.00
2023-03-31T16:38:11.109Z,100.00
2023-03-31T16:40:43.693Z,100.00
2023-03-31T16:43:11.868Z,100.00
2023-03-31T16:45:40.007Z,100.00
2023-03-31T16:48:15.620Z,100.00
2023-03-31T16:50:47.685Z,100.00
2023-03-31T16:53:16.674Z,100.00
2023-03-31T16:55:43.495Z,100.00
2023-03-31T16:58:10.666Z,100.00
2023-03-31T17:00:40.001Z,100.00
2023-03-31T17:03:09.530Z,100.00
2023-03-31T17:05:41.650Z,100.00
2023-03-31T17:08:10.208Z,100.00
2023-03-31T17:10:41.238Z,100.00
2023-03-31T17:13:09.419Z,100.00
2023-03-31T17:15:37.326Z,100.00
2023-03-31T17:18:04.514Z,100.00
2023-03-31T17:20:32.569Z,100.00
2023-03-31T17:23:00.056Z,100.00
2023-03-31T17:25:27.208Z,100.00
2023-03-31T17:27:55.434Z,100.00
2023-03-31T17:30:22.789Z,100.00
2023-03-31T17:32:51.539Z,100.00
2023-03-31T17:35:21.268Z,100.00
2023-03-31T17:37:53.188Z,100.00
2023-03-31T17:40:21.484Z,100.00
2023-03-31T17:42:48.997Z,100.00
2023-03-31T17:45:15.954Z,100.00
2023-03-31T17:47:44.607Z,100.00
2023-03-31T17:50:12.318Z,100.00
2023-03-31T17:52:39.999Z,100.00
2023-03-31T17:55:07.412Z,100.00
2023-03-31T17:57:36.463Z,100.00
2023-03-31T18:00:05.539Z,100.00
2023-03-31T18:02:37.329Z,100.00
2023-03-31T18:05:06.544Z,100.00
2023-03-31T18:07:34.427Z,100.00
2023-03-31T18:10:04.723Z,100.00
2023-03-31T18:12:33.852Z,100.00
2023-03-31T18:15:02.292Z,100.00
2023-03-31T18:17:30.723Z,100.00
2023-03-31T18:19:58.832Z,100.00
2023-03-31T18:22:26.017Z,100.00
2023-03-31T18:24:53.166Z,100.00
2023-03-31T18:27:21.287Z,100.00
2023-03-31T18:29:49.000Z,100.00
2023-03-31T18:32:15.974Z,100.00
2023-03-31T18:34:42.839Z,100.00
2023-03-31T18:37:10.056Z,100.00
2023-03-31T18:39:37.232Z,100.00
2023-03-31T18:42:04.822Z,100.00
2023-03-31T18:44:32.196Z,100.00
2023-03-31T18:46:59.074Z,100.00
2023-03-31T18:49:26.207Z,100.00
2023-03-31T18:51:53.530Z,100.00
2023-03-31T18:54:20.789Z,100.00
2023-03-31T18:56:47.724Z,100.00
2023-03-31T18:59:14.591Z,100.00
2023-03-31T19:01:41.844Z,100.00
2023-03-31T19:04:09.555Z,100.00
2023-03-31T19:06:36.977Z,100.00
2023-03-31T19:09:04.423Z,100.00
2023-03-31T19:11:31.826Z,100.00
2023-03-31T19:13:58.839Z,100.00
2023-03-31T19:16:26.700Z,100.00
2023-03-31T19:18:54.284Z,100.00
2023-03-31T19:21:21.774Z,100.00
2023-03-31T19:23:48.919Z,100.00
2023-03-31T19:26:18.902Z,100.00
2023-03-31T19:28:47.609Z,100.00
2023-03-31T19:31:15.112Z,100.00
2023-03-31T19:33:42.522Z,100.00
2023-03-31T19:36:09.431Z,100.00
2023-03-31T19:38:36.334Z,100.00
2023-03-31T19:41:04.977Z,100.00
2023-03-31T19:43:33.283Z,100.00
2023-03-31T19:46:00.854Z,100.00
2023-03-31T19:48:30.867Z,100.00
2023-03-31T19:50:59.374Z,100.00
2023-03-31T19:53:26.697Z,100.00
2023-03-31T19:55:59.631Z,100.00
2023-03-31T19:58:28.002Z,100.00
2023-03-31T20:00:56.498Z,100.00
2023-03-31T20:03:25.741Z,100.00
2023-03-31T20:06:11.901Z,100.00
2023-03-31T20:08:41.972Z,100.00
2023-03-31T20:11:12.946Z,100.00
2023-03-31T20:13:42.269Z,100.00
2023-03-31T20:16:12.240Z,100.00
2023-03-31T20:18:39.769Z,100.00
2023-03-31T20:21:10.776Z,100.00
2023-03-31T20:23:39.559Z,100.00
2023-03-31T20:26:08.513Z,100.00
2023-03-31T20:28:37.468Z,100.00
2023-03-31T20:31:14.209Z,100.00
2023-03-31T20:33:41.831Z,100.00
2023-03-31T20:36:20.478Z,100.00
2023-03-31T20:38:53.279Z,100.00
2023-03-31T20:41:23.440Z,100.00
2023-03-31T20:43:50.824Z,100.00
2023-03-31T20:46:18.590Z,100.00
2023-03-31T20:48:48.977Z,100.00
2023-03-31T20:51:18.715Z,100.00
2023-03-31T20:53:48.293Z,100.00
2023-03-31T20:56:19.288Z,100.00
2023-03-31T20:58:47.827Z,100.00
2023-03-31T21:01:16.453Z,100.00
2023-03-31T21:03:44.100Z,100.00
2023-03-31T21:06:13.700Z,100.00
2023-03-31T21:08:45.339Z,100.00
2023-03-31T21:11:13.513Z,100.00
2023-03-31T21:13:40.455Z,100.00
2023-03-31T21:16:07.493Z,100.00
2023-03-31T21:18:36.937Z,100.00
2023-03-31T21:21:11.851Z,100.00
2023-03-31T21:23:38.984Z,100.00
2023-03-31T21:26:08.308Z,100.00
2023-03-31T21:28:37.621Z,100.00
2023-03-31T21:31:10.745Z,100.00
2023-03-31T21:33:40.004Z,100.00
2023-03-31T21:36:10.132Z,100.00
2023-03-31T21:38:37.033Z,100.00
2023-03-31T21:41:09.586Z,100.00
2023-03-31T21:43:37.333Z,100.00
2023-03-31T21:46:05.915Z,100.00
2023-03-31T21:48:33.329Z,100.00
2023-03-31T21:51:02.335Z,100.00
2023-03-31T21:53:30.987Z,100.00
2023-03-31T21:55:58.112Z,100.00
2023-03-31T21:58:28.180Z,100.00
2023-03-31T22:00:57.459Z,100.00
2023-03-31T22:03:28.275Z,100.00
2023-03-31T22:05:56.492Z,100.00
2023-03-31T22:08:24.374Z,100.00
2023-03-31T22:10:52.534Z,100.00
2023-03-31T22:13:21.408Z,100.00
2023-03-31T22:15:48.530Z,100.00
2023-03-31T22:18:16.607Z,100.00
2023-03-31T22:20:44.963Z,100.00
2023-03-31T22:23:11.905Z,100.00
2023-03-31T22:25:38.748Z,100.00
2023-03-31T22:28:07.047Z,100.00
2023-03-31T22:30:35.123Z,100.00
2023-03-31T22:33:02.152Z,100.00
2023-03-31T22:35:28.968Z,100.00
2023-03-31T22:37:55.840Z,100.00
2023-03-31T22:40:23.462Z,100.00
2023-03-31T22:42:50.295Z,100.00
2023-03-31T22:45:17.195Z,100.00
2023-03-31T22:47:44.021Z,100.00
2023-03-31T22:50:11.497Z,100.00
2023-03-31T22:52:38.446Z,100.00
2023-03-31T22:55:05.733Z,100.00
2023-03-31T22:57:33.270Z,100.00
2023-03-31T23:00:00.256Z,100.00
2023-03-31T23:02:27.225Z,100.00
2023-03-31T23:04:54.086Z,100.00
2023-03-31T23:07:21.492Z,100.00
2023-03-31T23:09:48.526Z,100.00
2023-03-31T23:12:15.793Z,100.00
2023-03-31T23:14:42.583Z,100.00
2023-03-31T23:17:09.392Z,100.00
2023-03-31T23:19:38.272Z,100.00
2023-03-31T23:22:05.607Z,100.00
2023-03-31T23:24:32.538Z,100.00
2023-03-31T23:26:59.389Z,100.00
2023-03-31T23:29:26.911Z,100.00
2023-03-31T23:31:53.727Z,100.00
2023-03-31T23:34:20.787Z,100.00
2023-03-31T23:36:47.778Z,100.00
2023-03-31T23:39:14.617Z,100.00
2023-03-31T23:41:41.632Z,100.00
2023-03-31T23:44:08.511Z,100.00
2023-03-31T23:46:37.312Z,100.00
2023-03-31T23:49:04.582Z,100.00
2023-03-31T23:51:31.455Z,100.00
2023-03-31T23:53:58.240Z,100.00
2023-03-31T23:56:26.572Z,100.00
2023-03-31T23:58:53.753Z,100.00
